Time;durP1;ratioP1;P1;durP2;ratioP2;P2;SDS_P1;SDS_P2;PMS_P1;PMS_P2;Temp;Humidity;BMP_temperature;BMP_pressure;BME280_temperature;BME280_humidity;BME280_pressure;Samples;Min_cycle;Max_cycle;Signal;HPM_P1;HPM_P2
2022/10/20 00:00:39;;;;;;;9.60;8.05;;;;;;;22.35;66.89;99185.25;2107439;28;20081;-49
2022/10/20 00:01:39;;;;;;;11.88;8.43;;;;;;;22.35;67.15;99177.16;2108321;28;20459;-47
2022/10/20 00:02:41;;;;;;;12.98;9.07;;;;;;;22.35;66.73;99183.38;2108273;28;20047;-47
2022/10/20 00:03:43;;;;;;;12.68;9.50;;;;;;;22.36;67.06;99181.50;2105843;28;20131;-48
2022/10/20 00:04:44;;;;;;;11.25;8.98;;;;;;;22.36;67.02;99178.78;2107179;28;20073;-47
2022/10/20 00:05:45;;;;;;;10.82;8.68;;;;;;;22.36;67.09;99178.78;2108732;27;20054;-49
2022/10/20 00:06:48;;;;;;;11.93;8.63;;;;;;;22.35;67.00;99175.25;2104491;28;20047;-50
2022/10/20 00:07:49;;;;;;;13.10;9.05;;;;;;;22.35;67.05;99175.25;2107248;28;20395;-48
2022/10/20 00:08:52;;;;;;;12.48;8.27;;;;;;;22.34;67.08;99179.00;2108476;28;20054;-49
2022/10/20 00:09:52;;;;;;;10.70;8.10;;;;;;;22.35;67.17;99177.16;2108888;28;20048;-51
2022/10/20 00:10:54;;;;;;;12.77;8.73;;;;;;;22.35;66.97;99177.97;2108798;28;20486;-48
2022/10/20 00:11:55;;;;;;;11.38;8.13;;;;;;;22.35;66.98;99177.97;2108318;28;20048;-46
2022/10/20 00:12:57;;;;;;;12.93;9.15;;;;;;;22.36;66.93;99174.22;2107677;28;20428;-49
2022/10/20 00:13:59;;;;;;;11.32;8.88;;;;;;;22.36;66.93;99178.78;2108614;27;20212;-51
2022/10/20 00:15:01;;;;;;;13.88;8.57;;;;;;;22.38;66.85;99176.72;2105050;28;20055;-55
2022/10/20 00:16:02;;;;;;;10.77;8.25;;;;;;;22.35;66.94;99183.38;2103621;28;20051;-54
2022/10/20 00:17:05;;;;;;;12.73;7.53;;;;;;;22.34;67.15;99181.69;2107194;28;20073;-53
2022/10/20 00:18:06;;;;;;;12.95;8.60;;;;;;;22.34;67.16;99181.69;2107769;28;20410;-49
2022/10/20 00:19:07;;;;;;;9.57;7.85;;;;;;;22.35;67.10;99180.66;2110752;28;20075;-48
2022/10/20 00:20:09;;;;;;;12.98;8.73;;;;;;;22.37;66.80;99175.03;2108752;28;20066;-49
2022/10/20 00:21:15;;;;;;;12.20;8.07;;;;;;;22.35;66.68;99171.75;2107682;28;20048;-48
2022/10/20 00:22:17;;;;;;;12.02;8.65;;;;;;;22.36;66.64;99178.78;2109298;27;20063;-49
2022/10/20 00:23:19;;;;;;;12.93;8.45;;;;;;;22.36;66.71;99182.31;2110230;28;20052;-51
2022/10/20 00:24:20;;;;;;;11.85;8.55;;;;;;;22.36;66.73;99171.50;2110100;27;20046;-48
2022/10/20 00:25:22;;;;;;;18.33;8.05;;;;;;;22.35;66.61;99177.16;2108822;28;20047;-48
2022/10/20 00:26:24;;;;;;;11.27;8.20;;;;;;;22.36;66.80;99185.03;2106888;28;20048;-48
2022/10/20 00:27:26;;;;;;;10.95;8.32;;;;;;;22.35;66.79;99180.66;2108536;28;20052;-48
2022/10/20 00:28:27;;;;;;;14.18;8.75;;;;;;;22.35;66.73;99177.97;2111190;27;20401;-49
2022/10/20 00:29:30;;;;;;;11.10;8.30;;;;;;;22.36;66.72;99174.22;2108328;28;20047;-48
2022/10/20 00:30:32;;;;;;;10.25;8.60;;;;;;;22.35;66.99;99179.84;2108960;28;20044;-48
2022/10/20 00:31:34;;;;;;;11.55;7.65;;;;;;;22.36;66.88;99178.78;2107570;28;20542;-49
2022/10/20 00:32:35;;;;;;;11.77;8.65;;;;;;;22.35;66.80;99172.56;2109975;28;20047;-51
2022/10/20 00:33:37;;;;;;;11.25;7.85;;;;;;;22.36;66.94;99176.91;2109193;27;20059;-47
2022/10/20 00:34:37;;;;;;;11.50;9.10;;;;;;;22.35;66.86;99175.25;2108561;28;20036;-49
2022/10/20 00:35:39;;;;;;;13.52;8.85;;;;;;;22.37;66.79;99175.03;2107770;28;20058;-48
2022/10/20 00:36:40;;;;;;;10.43;8.45;;;;;;;22.35;66.80;99172.56;2108267;28;20047;-48
2022/10/20 00:37:43;;;;;;;9.98;7.57;;;;;;;22.37;66.83;99170.47;2107450;27;20108;-49
2022/10/20 00:38:44;;;;;;;11.48;7.85;;;;;;;22.36;66.74;99162.56;2108510;28;20054;-48
2022/10/20 00:39:46;;;;;;;10.82;8.43;;;;;;;22.36;66.81;99168.81;2110016;28;20044;-49
2022/10/20 00:40:47;;;;;;;11.55;8.40;;;;;;;22.35;66.90;99164.44;2108372;28;20043;-47
2022/10/20 00:41:48;;;;;;;8.80;7.00;;;;;;;22.35;66.94;99169.84;2110788;27;20044;-47
2022/10/20 00:42:49;;;;;;;12.55;8.45;;;;;;;22.34;66.96;99165.47;2110287;28;20048;-49
2022/10/20 00:43:53;;;;;;;10.02;7.50;;;;;;;22.35;66.86;99161.75;2108688;28;20040;-47
2022/10/20 00:44:55;;;;;;;10.70;7.70;;;;;;;22.36;66.69;99162.56;2108481;28;20048;-50
2022/10/20 00:45:57;;;;;;;11.43;8.30;;;;;;;22.35;66.83;99159.06;2109838;28;20051;-49
2022/10/20 00:46:58;;;;;;;12.95;8.98;;;;;;;22.35;66.94;99172.56;2106949;28;20107;-48
2022/10/20 00:48:04;;;;;;;16.35;8.20;;;;;;;22.35;66.89;99163.63;2108516;28;20682;-49
2022/10/20 00:49:11;;;;;;;10.68;7.70;;;;;;;22.34;66.49;99160.06;2108432;27;20048;-47
2022/10/20 00:50:17;;;;;;;10.63;8.32;;;;;;;22.35;66.74;99174.44;2109573;28;20044;-48
2022/10/20 00:51:21;;;;;;;10.00;8.05;;;;;;;22.35;66.90;99169.03;2107719;28;20425;-48
2022/10/20 00:52:24;;;;;;;13.13;8.10;;;;;;;22.35;66.86;99169.03;2109378;28;20126;-48
2022/10/20 00:53:28;;;;;;;10.48;8.38;;;;;;;22.34;66.96;99168.19;2108146;28;20054;-48
2022/10/20 00:54:30;;;;;;;9.90;7.20;;;;;;;22.33;66.92;99166.53;2110135;28;20051;-49
2022/10/20 00:55:34;;;;;;;7.40;6.65;;;;;;;22.35;66.83;99172.56;2109852;28;20048;-49
2022/10/20 00:56:42;;;;;;;12.02;8.48;;;;;;;22.34;66.90;99165.47;2108963;28;20092;-48
2022/10/20 00:57:47;;;;;;;11.90;8.15;;;;;;;22.33;67.00;99171.94;2110273;28;20048;-47
2022/10/20 00:58:50;;;;;;;9.77;7.70;;;;;;;22.33;67.13;99166.53;2111153;27;20051;-48
2022/10/20 00:59:50;;;;;;;8.82;7.07;;;;;;;22.34;66.88;99168.19;2107879;28;20047;-48
2022/10/20 01:00:56;;;;;;;12.40;8.73;;;;;;;22.35;67.16;99172.56;2108547;28;20062;-48
2022/10/20 01:01:58;;;;;;;17.50;8.40;;;;;;;22.35;67.09;99177.16;2109535;28;20092;-50
2022/10/20 01:03:02;;;;;;;18.98;8.20;;;;;;;22.34;67.14;99173.59;2110313;28;20131;-48
2022/10/20 01:04:03;;;;;;;11.38;8.60;;;;;;;22.34;67.11;99173.59;2109111;28;20052;-48
2022/10/20 01:05:06;;;;;;;12.25;7.75;;;;;;;22.35;66.95;99175.25;2108985;28;20048;-47
2022/10/20 01:06:07;;;;;;;10.25;6.97;;;;;;;22.35;67.19;99169.84;2108886;28;20104;-49
2022/10/20 01:07:09;;;;;;;10.13;7.50;;;;;;;22.35;67.09;99169.03;2108210;28;20060;-48
2022/10/20 01:08:10;;;;;;;8.80;7.38;;;;;;;22.34;67.04;99176.28;2107728;28;20044;-52
2022/10/20 01:09:13;;;;;;;14.73;7.78;;;;;;;22.34;67.04;99176.28;2109554;28;20076;-48
2022/10/20 01:10:14;;;;;;;10.68;7.55;;;;;;;22.35;66.89;99174.44;2108272;28;20052;-48
2022/10/20 01:11:28;;;;;;;9.13;7.05;;;;;;;22.33;67.07;99173.81;2108058;28;20048;-48
2022/10/20 01:12:37;;;;;;;12.10;8.27;;;;;;;22.33;67.05;99171.13;2109580;27;20493;-47
2022/10/20 01:13:47;;;;;;;8.93;7.15;;;;;;;22.33;66.87;99163.84;2106126;28;20052;-52
2022/10/20 01:14:57;;;;;;;9.80;7.18;;;;;;;22.32;67.06;99169.47;2108694;28;20051;-48
2022/10/20 01:16:09;;;;;;;11.77;7.82;;;;;;;22.30;67.19;99166.97;2108546;28;20044;-50
2022/10/20 01:17:22;;;;;;;9.60;7.50;;;;;;;22.30;66.95;99169.66;2107165;28;20070;-48
2022/10/20 01:18:33;;;;;;;10.88;8.27;;;;;;;22.31;66.98;99168.63;2107590;28;20047;-47
2022/10/20 01:20:21;;;;;;;9.55;7.28;;;;;;;22.27;66.90;99160.13;2107955;28;20538;-48
2022/10/20 01:21:58;;;;;;;10.05;7.55;;;;;;;22.22;67.36;99167.22;2108486;27;20052;-49
2022/10/20 01:23:33;;;;;;;8.55;6.60;;;;;;;22.24;67.13;99159.72;2090486;28;20510;-49
2022/10/20 01:25:04;;;;;;;10.20;8.52;;;;;;;22.22;67.36;99165.31;2074142;28;20052;-48
2022/10/20 01:26:53;;;;;;;9.55;6.60;;;;;;;22.19;67.46;99154.94;2106540;28;20048;-51
2022/10/20 01:28:03;;;;;;;12.60;9.80;;;;;;;22.22;67.31;99159.09;2077017;28;20215;-49
2022/10/20 01:29:08;;;;;;;9.15;6.75;;;;;;;22.26;67.36;99160.34;2107129;28;20051;-47
2022/10/20 01:30:13;;;;;;;11.32;7.45;;;;;;;22.26;67.39;99147.66;2107377;28;20125;-48
2022/10/20 01:31:21;;;;;;;9.23;7.35;;;;;;;22.28;67.17;99153.66;2108834;28;20040;-49
2022/10/20 01:32:31;;;;;;;11.68;8.05;;;;;;;22.29;66.96;99157.22;2107358;28;20141;-47
2022/10/20 01:33:38;;;;;;;11.43;7.63;;;;;;;22.30;66.99;99158.88;2109127;28;20108;-48
2022/10/20 01:34:49;;;;;;;12.35;7.93;;;;;;;22.27;66.96;99157.41;2107661;28;20044;-47
2022/10/20 01:35:53;;;;;;;;;;;;;;;22.17;67.41;99159.69;2108226;28;20076;-47
2022/10/20 01:36:59;;;;;;;8.40;6.78;;;;;;;22.22;67.09;99159.09;2107181;28;19924;-47
2022/10/20 01:38:10;;;;;;;9.55;7.13;;;;;;;22.25;67.21;99159.50;2107566;28;20481;-47
2022/10/20 01:39:18;;;;;;;12.73;7.22;;;;;;;22.26;67.16;99152.25;2108961;28;20113;-48
2022/10/20 01:40:26;;;;;;;10.70;8.05;;;;;;;22.27;67.05;99153.88;2107654;28;20059;-47
2022/10/20 01:41:32;;;;;;;9.48;6.93;;;;;;;22.28;67.28;99144.72;2107834;28;20557;-47
2022/10/20 01:42:38;;;;;;;11.00;7.03;;;;;;;22.29;66.95;99147.22;2107188;28;20097;-47
2022/10/20 01:43:45;;;;;;;10.82;7.32;;;;;;;22.28;66.97;99142.84;2107947;28;20134;-47
2022/10/20 01:44:48;;;;;;;11.13;7.03;;;;;;;22.27;67.07;99145.78;2106039;28;20044;-49
2022/10/20 01:45:51;;;;;;;9.63;7.05;;;;;;;22.28;67.03;99147.44;2106764;28;20051;-47
2022/10/20 01:46:54;;;;;;;14.95;8.60;;;;;;;22.28;67.12;99142.84;2107232;28;20100;-47
2022/10/20 01:47:58;;;;;;;10.13;6.53;;;;;;;22.29;66.93;99141.00;2108361;28;20506;-48
2022/10/20 01:49:02;;;;;;;8.57;6.65;;;;;;;22.30;67.01;99142.66;2105628;28;20051;-47
2022/10/20 01:50:07;;;;;;;10.38;7.28;;;;;;;22.30;67.04;99145.34;2105662;28;20051;-49
2022/10/20 01:51:08;;;;;;;9.68;6.97;;;;;;;22.28;67.12;99142.03;2106058;28;20116;-46
2022/10/20 01:52:11;;;;;;;9.75;6.82;;;;;;;22.31;67.10;99138.88;2107148;28;20383;-46
2022/10/20 01:53:11;;;;;;;8.15;6.45;;;;;;;22.33;67.14;99136.81;2105843;28;20148;-49
2022/10/20 01:54:23;;;;;;;10.45;7.10;;;;;;;22.29;67.17;99135.59;2108843;28;20066;-46
2022/10/20 01:55:24;;;;;;;7.88;6.97;;;;;;;22.27;67.11;99133.09;2105990;28;20055;-47
2022/10/20 01:56:33;;;;;;;8.45;6.75;;;;;;;22.28;67.06;99136.63;2105901;28;20419;-48
2022/10/20 01:57:48;;;;;;;8.55;6.55;;;;;;;22.28;67.28;99133.91;2107306;28;20055;-50
2022/10/20 01:59:28;;;;;;;10.10;7.20;;;;;;;22.24;67.10;99133.53;2107962;28;20051;-51
2022/10/20 02:00:29;;;;;;;10.45;7.10;;;;;;;22.25;67.31;99137.06;2107134;28;22228;-48
2022/10/20 02:01:46;;;;;;;8.40;6.43;;;;;;;22.28;67.22;99139.31;2105646;28;20047;-49
2022/10/20 02:03:15;;;;;;;9.48;7.20;;;;;;;22.25;67.10;99131.66;2108168;28;20048;-48
2022/10/20 02:04:20;;;;;;;11.32;7.50;;;;;;;22.25;67.29;99140.56;2109712;27;20040;-51
2022/10/20 02:05:46;;;;;;;8.73;7.38;;;;;;;22.24;67.18;99132.69;2109249;28;20610;-50
2022/10/20 02:06:56;;;;;;;8.65;6.93;;;;;;;22.27;67.08;99133.09;2108903;27;20047;-50
2022/10/20 02:08:07;;;;;;;13.80;6.50;;;;;;;22.26;67.20;99131.44;2109714;28;20055;-51
2022/10/20 02:09:11;;;;;;;;;;;;;;;22.18;67.55;99130.88;2110010;28;20407;-47
2022/10/20 02:10:17;;;;;;;11.65;8.23;;;;;;;22.24;67.31;99135.41;2109215;27;19928;-46
2022/10/20 02:11:24;;;;;;;14.52;7.22;;;;;;;22.28;67.20;99131.22;2109138;28;20052;-54
2022/10/20 02:12:29;;;;;;;10.98;7.95;;;;;;;22.27;67.14;99134.97;2111068;27;20150;-49
2022/10/20 02:13:31;;;;;;;9.63;6.95;;;;;;;22.30;66.97;99134.53;2110140;28;20079;-51
2022/10/20 02:14:36;;;;;;;8.82;6.45;;;;;;;22.32;66.86;99131.63;2107558;27;20044;-50
2022/10/20 02:15:41;;;;;;;9.68;6.68;;;;;;;22.31;66.95;99122.69;2108285;27;20044;-50
2022/10/20 02:16:47;;;;;;;8.90;6.75;;;;;;;22.32;67.04;99129.75;2108065;28;20054;-48
2022/10/20 02:17:53;;;;;;;10.68;7.70;;;;;;;22.31;66.76;99128.09;2109161;28;20047;-51
2022/10/20 02:18:56;;;;;;;10.85;6.97;;;;;;;22.31;67.02;99130.78;2112149;27;20048;-51
2022/10/20 02:19:57;;;;;;;7.95;6.40;;;;;;;22.30;66.87;99132.66;2108697;27;20048;-49
2022/10/20 02:21:03;;;;;;;8.88;6.68;;;;;;;22.31;67.03;99130.78;2109729;28;20055;-48
2022/10/20 02:22:06;;;;;;;11.70;6.43;;;;;;;22.29;67.05;99125.59;2110421;28;20048;-53
2022/10/20 02:23:08;;;;;;;11.70;6.93;;;;;;;22.31;66.99;99128.09;2110189;28;20075;-51
2022/10/20 02:24:13;;;;;;;11.15;8.02;;;;;;;22.31;67.14;99122.69;2107306;27;20047;-49
2022/10/20 02:25:15;;;;;;;9.32;6.15;;;;;;;22.31;67.00;99130.78;2110169;27;20093;-50
2022/10/20 02:26:18;;;;;;;8.20;7.40;;;;;;;22.33;66.82;99130.56;2107772;27;20047;-54
2022/10/20 02:27:24;;;;;;;7.28;6.45;;;;;;;22.31;67.03;99133.47;2108681;28;20052;-51
2022/10/20 02:28:27;;;;;;;10.48;6.50;;;;;;;22.32;66.89;99132.47;2108909;27;20043;-52
2022/10/20 02:29:36;;;;;;;7.95;6.35;;;;;;;22.30;67.00;99131.84;2109107;27;20043;-48
2022/10/20 02:30:40;;;;;;;7.95;6.75;;;;;;;22.31;66.89;99133.47;2107471;27;20394;-50
2022/10/20 02:31:43;;;;;;;8.95;7.10;;;;;;;22.31;66.98;99133.47;2109364;28;20075;-48
2022/10/20 02:32:48;;;;;;;9.52;6.35;;;;;;;22.30;66.96;99129.97;2108534;28;20059;-53
2022/10/20 02:33:51;;;;;;;9.70;7.72;;;;;;;22.29;67.02;99131.00;2108805;28;20043;-53
2022/10/20 02:34:52;;;;;;;8.20;6.60;;;;;;;22.30;66.96;99132.66;2107891;27;20048;-53
2022/10/20 02:35:57;;;;;;;9.77;6.60;;;;;;;22.31;66.90;99133.47;2109328;28;20044;-49
2022/10/20 02:36:58;;;;;;;10.32;6.90;;;;;;;22.32;66.97;99140.56;2107763;28;20640;-50
2022/10/20 02:38:00;;;;;;;15.98;6.97;;;;;;;22.29;67.09;99147.22;2108542;27;20097;-52
2022/10/20 02:39:01;;;;;;;9.30;6.57;;;;;;;22.30;66.94;99142.66;2108643;28;20542;-50
2022/10/20 02:40:04;;;;;;;6.78;6.07;;;;;;;22.31;66.93;99136.19;2107315;27;20048;-49
2022/10/20 02:41:05;;;;;;;11.02;6.80;;;;;;;22.29;67.00;99132.91;2109100;27;20489;-51
2022/10/20 02:42:07;;;;;;;10.23;5.60;;;;;;;22.27;66.94;99137.69;2107798;27;20109;-50
2022/10/20 02:43:07;;;;;;;9.75;6.60;;;;;;;22.27;67.07;99134.97;2109178;27;20047;-46
2022/10/20 02:44:09;;;;;;;6.70;5.78;;;;;;;22.27;66.91;99140.38;2106929;28;20048;-51
2022/10/20 02:45:10;;;;;;;9.48;6.18;;;;;;;22.29;66.94;99133.72;2108741;27;20055;-46
2022/10/20 02:46:15;;;;;;;7.28;6.15;;;;;;;22.30;67.01;99135.38;2109573;28;20421;-49
2022/10/20 02:47:16;;;;;;;7.97;6.20;;;;;;;22.29;66.86;99133.72;2110132;27;20056;-48
2022/10/20 02:48:18;;;;;;;9.65;6.68;;;;;;;22.28;67.01;99129.34;2108407;28;20683;-48
2022/10/20 02:49:20;;;;;;;8.98;6.15;;;;;;;22.29;67.03;99136.41;2110510;28;20044;-49
2022/10/20 02:50:22;;;;;;;9.98;6.60;;;;;;;22.29;66.92;99135.59;2109302;28;20659;-53
2022/10/20 02:51:23;;;;;;;7.05;5.85;;;;;;;22.27;67.11;99141.19;2109164;28;20051;-46
2022/10/20 02:52:24;;;;;;;7.85;6.43;;;;;;;22.27;67.03;99133.09;2111366;28;20043;-51
2022/10/20 02:53:25;;;;;;;7.70;5.68;;;;;;;22.29;66.79;99138.28;2109671;28;20092;-50
2022/10/20 02:54:27;;;;;;;7.25;6.55;;;;;;;22.29;66.94;99138.28;2108228;28;20102;-50
2022/10/20 02:55:28;;;;;;;8.23;6.75;;;;;;;22.28;66.86;99139.31;2109481;28;20044;-50
2022/10/20 02:56:30;;;;;;;8.80;7.60;;;;;;;22.29;66.86;99131.00;2108526;28;20051;-46
2022/10/20 02:57:30;;;;;;;8.45;6.80;;;;;;;22.28;67.05;99142.03;2109015;28;20073;-48
2022/10/20 02:58:32;;;;;;;8.30;6.43;;;;;;;22.27;66.95;99134.97;2112394;28;20051;-47
2022/10/20 02:59:33;;;;;;;10.88;6.43;;;;;;;22.30;66.97;99134.53;2112040;28;20052;-49
2022/10/20 03:00:35;;;;;;;8.25;6.55;;;;;;;22.29;66.93;99139.13;2111082;28;20047;-49
2022/10/20 03:01:37;;;;;;;8.82;6.65;;;;;;;22.28;67.02;99137.44;2111429;28;20055;-50
2022/10/20 03:02:39;;;;;;;8.05;6.05;;;;;;;22.29;66.83;99141.81;2109646;28;20047;-51
2022/10/20 03:03:40;;;;;;;9.25;7.05;;;;;;;22.30;66.98;99140.78;2109147;28;20370;-47
2022/10/20 03:04:41;;;;;;;9.43;7.07;;;;;;;22.30;66.77;99140.78;2110508;28;20134;-47
2022/10/20 03:05:43;;;;;;;7.53;6.72;;;;;;;22.29;66.91;99147.22;2110044;28;20508;-49
2022/10/20 03:06:45;;;;;;;9.40;5.97;;;;;;;22.30;66.84;99142.66;2109794;28;20044;-47
2022/10/20 03:07:45;;;;;;;7.32;5.75;;;;;;;22.30;66.76;99135.38;2108731;28;20056;-47
2022/10/20 03:08:47;;;;;;;9.85;6.63;;;;;;;22.28;66.78;99134.75;2111542;28;20153;-49
2022/10/20 03:09:48;;;;;;;6.45;5.85;;;;;;;22.28;66.78;99132.03;2110182;27;20048;-47
2022/10/20 03:10:50;;;;;;;7.68;5.60;;;;;;;22.29;66.64;99143.69;2107204;28;20436;-49
2022/10/20 03:11:51;;;;;;;7.13;5.80;;;;;;;22.32;66.81;99139.75;2108812;28;20056;-50
2022/10/20 03:12:52;;;;;;;9.27;6.63;;;;;;;22.30;66.85;99135.38;2107836;28;20074;-47
2022/10/20 03:13:53;;;;;;;9.70;6.07;;;;;;;22.29;66.71;99133.72;2108887;27;20043;-46
2022/10/20 03:14:55;;;;;;;9.15;6.78;;;;;;;22.30;66.76;99137.25;2107129;28;20052;-48
2022/10/20 03:15:56;;;;;;;7.45;6.47;;;;;;;22.28;66.64;99134.75;2107386;28;20040;-50
2022/10/20 03:16:59;;;;;;;6.55;5.90;;;;;;;22.28;66.88;99136.63;2107530;28;20426;-49
2022/10/20 03:18:00;;;;;;;7.28;6.35;;;;;;;22.25;66.90;99139.75;2108208;28;20054;-49
2022/10/20 03:19:02;;;;;;;6.20;5.32;;;;;;;22.27;66.90;99138.50;2109476;28;20058;-48
2022/10/20 03:20:03;;;;;;;7.38;6.28;;;;;;;22.29;66.85;99136.41;2107719;28;20052;-46
2022/10/20 03:21:05;;;;;;;6.95;6.22;;;;;;;22.27;66.81;99134.97;2107499;27;20437;-47
2022/10/20 03:22:06;;;;;;;8.05;6.25;;;;;;;22.28;66.92;99137.44;2108521;28;20486;-48
2022/10/20 03:23:08;;;;;;;8.98;6.95;;;;;;;22.26;66.81;99134.16;2108593;28;20048;-46
2022/10/20 03:24:08;;;;;;;8.82;5.88;;;;;;;22.29;66.84;99136.41;2108394;27;20051;-49
2022/10/20 03:25:10;;;;;;;9.82;6.78;;;;;;;22.27;66.98;99137.69;2104884;28;20047;-50
2022/10/20 03:26:12;;;;;;;7.65;5.70;;;;;;;22.27;66.81;99132.28;2106461;28;20128;-46
2022/10/20 03:27:13;;;;;;;9.43;5.90;;;;;;;22.28;66.89;99139.31;2107776;28;20047;-46
2022/10/20 03:28:14;;;;;;;8.70;6.25;;;;;;;22.27;66.90;99143.09;2110387;28;20116;-46
2022/10/20 03:29:16;;;;;;;11.55;6.32;;;;;;;22.25;66.95;99137.88;2108444;28;20058;-47
2022/10/20 03:30:18;;;;;;;8.52;5.82;;;;;;;22.26;66.90;99141.44;2109462;28;20443;-46
2022/10/20 03:31:22;;;;;;;13.60;6.55;;;;;;;22.27;66.78;99137.69;2108949;28;20051;-48
2022/10/20 03:32:24;;;;;;;7.30;6.18;;;;;;;22.27;66.97;99143.09;2107719;28;20039;-49
2022/10/20 03:33:26;;;;;;;9.20;6.63;;;;;;;22.28;66.87;99150.97;2109343;27;20076;-46
2022/10/20 03:34:27;;;;;;;10.02;6.22;;;;;;;22.29;66.75;99143.69;2108667;28;20104;-50
2022/10/20 03:35:29;;;;;;;8.55;6.65;;;;;;;22.25;67.04;99139.75;2106465;28;20076;-47
2022/10/20 03:36:31;;;;;;;7.38;5.95;;;;;;;22.27;66.95;99154.72;2106791;28;20118;-47
2022/10/20 03:37:31;;;;;;;9.73;6.10;;;;;;;22.27;66.90;99152.00;2108478;28;20101;-46
2022/10/20 03:38:33;;;;;;;9.73;7.07;;;;;;;22.28;66.93;99150.97;2106772;28;20056;-48
2022/10/20 03:39:34;;;;;;;8.02;6.13;;;;;;;22.27;66.88;99149.31;2108445;28;20048;-48
2022/10/20 03:40:36;;;;;;;10.13;6.75;;;;;;;22.27;66.86;99151.19;2108373;28;20079;-47
2022/10/20 03:41:36;;;;;;;7.10;6.18;;;;;;;22.28;66.81;99150.13;2106371;28;20048;-49
2022/10/20 03:42:38;;;;;;;6.80;5.88;;;;;;;22.27;66.88;99151.19;2109653;28;20100;-47
2022/10/20 03:43:39;;;;;;;9.32;6.53;;;;;;;22.27;66.81;99145.78;2106774;28;20402;-46
2022/10/20 03:44:43;;;;;;;8.02;5.75;;;;;;;22.27;66.80;99148.47;2106660;28;20061;-46
2022/10/20 03:45:44;;;;;;;7.75;6.25;;;;;;;22.28;66.77;99150.13;2108357;27;20436;-48
2022/10/20 03:46:46;;;;;;;12.05;6.15;;;;;;;22.27;66.71;99143.09;2108870;28;20044;-48
2022/10/20 03:47:48;;;;;;;7.78;6.95;;;;;;;22.28;66.83;99142.03;2105277;28;20052;-47
2022/10/20 03:48:50;;;;;;;12.85;6.13;;;;;;;22.29;66.69;99141.81;2107264;28;20039;-48
2022/10/20 03:49:51;;;;;;;8.13;6.32;;;;;;;22.27;66.74;99143.91;2107781;27;20102;-48
2022/10/20 03:50:52;;;;;;;10.25;5.85;;;;;;;22.28;66.60;99145.56;2108041;28;20474;-46
2022/10/20 03:51:53;;;;;;;9.18;5.70;;;;;;;22.29;66.77;99146.41;2107800;27;20043;-47
2022/10/20 03:52:55;;;;;;;9.20;6.47;;;;;;;22.29;66.54;99149.09;2106867;28;20053;-48
2022/10/20 03:53:56;;;;;;;7.32;5.85;;;;;;;22.29;66.80;99157.22;2108091;28;20124;-46
2022/10/20 03:54:57;;;;;;;;;;;;;;;22.19;66.90;99148.72;2109220;28;20566;-47
2022/10/20 03:55:58;;;;;;;7.38;5.43;;;;;;;22.20;67.02;99153.06;2107282;28;19919;-50
2022/10/20 03:56:59;;;;;;;;;;;;;;;22.11;67.18;99159.75;2106731;27;20039;-49
2022/10/20 03:58:00;;;;;;;13.88;5.45;;;;;;;22.16;67.13;99152.66;2107461;28;20479;-46
2022/10/20 03:59:02;;;;;;;7.13;5.70;;;;;;;22.21;67.10;99160.16;2107834;27;20104;-47
2022/10/20 04:00:03;;;;;;;13.27;6.05;;;;;;;22.25;66.94;99153.25;2107649;28;20100;-47
2022/10/20 04:01:08;;;;;;;8.65;6.70;;;;;;;22.26;66.89;99153.06;2105986;28;20582;-47
2022/10/20 04:02:30;;;;;;;14.15;7.10;;;;;;;22.23;67.03;99152.66;2109722;28;20054;-47
2022/10/20 04:03:32;;;;;;;9.00;5.53;;;;;;;22.22;66.83;99154.53;2108981;28;20044;-47
2022/10/20 04:04:34;;;;;;;13.20;6.97;;;;;;;22.25;66.96;99161.38;2106607;28;20039;-47
2022/10/20 04:05:35;;;;;;;6.82;6.05;;;;;;;22.23;66.86;99164.31;2108063;28;20452;-50
2022/10/20 04:06:37;;;;;;;8.35;5.95;;;;;;;22.24;66.90;99165.13;2107757;28;20040;-49
2022/10/20 04:07:37;;;;;;;7.00;5.38;;;;;;;22.25;66.82;99158.66;2108832;28;20047;-48
2022/10/20 04:08:39;;;;;;;11.90;7.13;;;;;;;22.26;66.90;99160.34;2107957;28;20051;-46
2022/10/20 04:09:40;;;;;;;9.32;6.65;;;;;;;22.28;66.90;99163.66;2104950;28;20071;-49
2022/10/20 04:10:42;;;;;;;7.18;4.90;;;;;;;22.27;66.62;99167.41;2107305;27;20770;-48
2022/10/20 04:11:42;;;;;;;8.80;6.05;;;;;;;22.28;66.88;99166.34;2108323;28;20509;-48
2022/10/20 04:12:44;;;;;;;9.23;6.13;;;;;;;22.27;66.87;99170.94;2107077;28;20048;-48
2022/10/20 04:13:45;;;;;;;7.03;5.50;;;;;;;22.28;66.61;99166.34;2106813;28;20039;-49
2022/10/20 04:14:48;;;;;;;9.05;5.68;;;;;;;22.26;66.56;99169.28;2109249;28;20487;-49
2022/10/20 04:15:48;;;;;;;7.05;5.65;;;;;;;22.24;66.95;99162.44;2107515;28;20047;-48
2022/10/20 04:16:50;;;;;;;7.50;5.78;;;;;;;22.24;66.86;99160.56;2108619;28;20649;-47
2022/10/20 04:17:51;;;;;;;7.70;5.85;;;;;;;22.24;66.81;99160.56;2107692;28;20056;-48
2022/10/20 04:18:55;;;;;;;8.00;5.90;;;;;;;22.27;66.89;99159.28;2105099;28;20096;-52
2022/10/20 04:19:56;;;;;;;7.20;5.88;;;;;;;22.24;66.92;99157.03;2106601;28;20052;-48
2022/10/20 04:20:58;;;;;;;7.68;5.07;;;;;;;22.23;66.86;99163.44;2104735;28;20046;-46
2022/10/20 04:21:58;;;;;;;9.07;5.53;;;;;;;22.27;66.70;99162.00;2105595;28;20079;-45
2022/10/20 04:23:00;;;;;;;8.35;6.40;;;;;;;22.30;66.63;99158.88;2105714;28;20090;-49
2022/10/20 04:24:01;;;;;;;6.70;5.03;;;;;;;22.30;66.65;99162.38;2106790;28;20060;-46
2022/10/20 04:25:03;;;;;;;6.57;5.65;;;;;;;22.30;66.58;99161.56;2108707;28;20047;-47
2022/10/20 04:26:08;;;;;;;10.10;5.78;;;;;;;22.28;66.63;99155.53;2104884;28;20425;-50
2022/10/20 04:27:10;;;;;;;8.93;5.38;;;;;;;22.28;66.54;99158.25;2107528;28;20052;-46
2022/10/20 04:28:11;;;;;;;10.25;5.53;;;;;;;22.28;66.46;99160.94;2107269;28;20054;-46
2022/10/20 04:29:13;;;;;;;7.95;5.47;;;;;;;22.25;66.63;99151.38;2108397;28;20558;-47
2022/10/20 04:30:14;;;;;;;7.07;5.50;;;;;;;22.23;66.70;99153.50;2108270;28;20052;-48
2022/10/20 04:31:15;;;;;;;8.57;6.40;;;;;;;22.26;66.29;99160.34;2108304;27;20047;-45
2022/10/20 04:32:16;;;;;;;8.07;5.95;;;;;;;22.26;66.57;99157.66;2108156;27;20048;-46
2022/10/20 04:33:18;;;;;;;7.93;5.80;;;;;;;22.25;66.40;99154.09;2108689;28;20062;-46
2022/10/20 04:34:22;;;;;;;9.23;5.65;;;;;;;22.24;66.49;99157.84;2107588;28;20047;-48
2022/10/20 04:35:22;;;;;;;8.82;5.38;;;;;;;22.24;66.27;99148.91;2106466;28;20907;-47
2022/10/20 04:36:24;;;;;;;7.32;5.13;;;;;;;22.23;66.38;99155.34;2108549;28;20075;-45
2022/10/20 04:37:25;;;;;;;6.40;5.43;;;;;;;22.24;66.18;99151.63;2104826;28;20040;-49
2022/10/20 04:38:29;;;;;;;7.40;6.03;;;;;;;22.23;66.32;99153.50;2106340;28;20047;-49
2022/10/20 04:39:30;;;;;;;7.53;5.70;;;;;;;22.25;66.20;99155.97;2107446;28;20052;-46
2022/10/20 04:40:32;;;;;;;12.13;5.75;;;;;;;22.26;66.52;99147.66;2106073;28;20047;-49
2022/10/20 04:41:33;;;;;;;9.32;6.13;;;;;;;22.28;66.32;99152.84;2103450;27;20059;-47
2022/10/20 04:42:35;;;;;;;7.38;5.75;;;;;;;22.30;66.11;99148.88;2106240;27;20534;-47
2022/10/20 04:43:35;;;;;;;7.95;6.78;;;;;;;22.29;66.09;99152.63;2106504;27;20573;-47
2022/10/20 04:44:37;;;;;;;7.88;4.88;;;;;;;22.31;66.02;99144.28;2107978;28;20092;-46
2022/10/20 04:45:38;;;;;;;6.18;5.57;;;;;;;22.29;66.19;99149.09;2109062;28;20039;-46
2022/10/20 04:46:40;;;;;;;8.20;5.53;;;;;;;22.27;66.08;99145.78;2106441;28;20101;-46
2022/10/20 04:47:41;;;;;;;7.38;5.75;;;;;;;22.27;66.32;99156.59;2107955;28;20058;-47
2022/10/20 04:48:43;;;;;;;9.85;6.78;;;;;;;22.26;66.30;99152.25;2108233;27;20221;-47
2022/10/20 04:49:45;;;;;;;11.82;5.57;;;;;;;22.25;66.06;99150.56;2108421;27;20470;-50
2022/10/20 04:50:47;;;;;;;11.45;5.57;;;;;;;22.24;66.15;99144.34;2106443;28;20071;-46
2022/10/20 04:51:48;;;;;;;11.32;6.00;;;;;;;22.24;66.25;99151.63;2105791;28;20073;-48
2022/10/20 04:52:50;;;;;;;6.80;5.28;;;;;;;22.22;66.29;99146.41;2107061;28;20055;-46
2022/10/20 04:53:51;;;;;;;7.57;5.32;;;;;;;22.25;65.95;99150.56;2107393;27;20397;-47
2022/10/20 04:54:52;;;;;;;11.25;4.75;;;;;;;22.24;66.03;99148.91;2108326;27;20050;-46
2022/10/20 04:55:54;;;;;;;9.02;5.80;;;;;;;22.23;66.12;99148.09;2110412;27;20995;-46
2022/10/20 04:56:56;;;;;;;9.07;5.65;;;;;;;22.22;66.04;99146.41;2108238;28;20047;-46
2022/10/20 04:57:57;;;;;;;7.72;6.05;;;;;;;22.22;66.17;99151.00;2107514;27;20126;-47
2022/10/20 04:58:59;;;;;;;9.70;6.35;;;;;;;22.23;66.18;99149.94;2109567;28;20074;-47
2022/10/20 05:00:00;;;;;;;5.80;4.95;;;;;;;22.22;66.12;99151.00;2109274;28;20119;-46